sensor_id;sensor_type;location;lat;lon;timestamp;pressure;altitude;pressure_sealevel;temperature
42119;BMP280;27783;42.782;23.274;2023-02-01T00:00:22;95617.91;;;1.83
42119;BMP280;27783;42.782;23.274;2023-02-01T00:02:48;95600.81;;;1.82
42119;BMP280;27783;42.782;23.274;2023-02-01T00:05:20;95616.19;;;1.86
42119;BMP280;27783;42.782;23.274;2023-02-01T00:07:47;95620.63;;;1.86
42119;BMP280;27783;42.782;23.274;2023-02-01T00:10:13;95619.09;;;1.85
42119;BMP280;27783;42.782;23.274;2023-02-01T00:12:40;95627.78;;;1.77
42119;BMP280;27783;42.782;23.274;2023-02-01T00:15:05;95626.13;;;1.84
42119;BMP280;27783;42.782;23.274;2023-02-01T00:17:32;95623.88;;;1.83
42119;BMP280;27783;42.782;23.274;2023-02-01T00:19:57;95619.97;;;1.77
42119;BMP280;27783;42.782;23.274;2023-02-01T00:22:23;95616.63;;;1.77
42119;BMP280;27783;42.782;23.274;2023-02-01T00:24:48;95619.09;;;1.85
42119;BMP280;27783;42.782;23.274;2023-02-01T00:27:16;95615.56;;;1.78
42119;BMP280;27783;42.782;23.274;2023-02-01T00:29:46;95608.50;;;1.78
42119;BMP280;27783;42.782;23.274;2023-02-01T00:32:13;95614.03;;;1.77
42119;BMP280;27783;42.782;23.274;2023-02-01T00:34:39;95607.31;;;1.76
42119;BMP280;27783;42.782;23.274;2023-02-01T00:37:05;95608.84;;;1.77
42119;BMP280;27783;42.782;23.274;2023-02-01T00:39:31;95614.69;;;1.74
42119;BMP280;27783;42.782;23.274;2023-02-01T00:42:00;95607.97;;;1.73
42119;BMP280;27783;42.782;23.274;2023-02-01T00:44:30;95607.44;;;1.67
42119;BMP280;27783;42.782;23.274;2023-02-01T00:47:09;95601.03;;;1.65
42119;BMP280;27783;42.782;23.274;2023-02-01T00:49:46;95596.16;;;1.64
42119;BMP280;27783;42.782;23.274;2023-02-01T00:52:17;95600.91;;;1.62
42119;BMP280;27783;42.782;23.274;2023-02-01T00:54:46;95601.03;;;1.53
42119;BMP280;27783;42.782;23.274;2023-02-01T00:57:14;95595.19;;;1.45
42119;BMP280;27783;42.782;23.274;2023-02-01T00:59:42;95594.06;;;1.34
42119;BMP280;27783;42.782;23.274;2023-02-01T01:02:22;95602.06;;;1.29
42119;BMP280;27783;42.782;23.274;2023-02-01T01:04:47;95598.41;;;1.30
42119;BMP280;27783;42.782;23.274;2023-02-01T01:07:14;95594.03;;;1.22
42119;BMP280;27783;42.782;23.274;2023-02-01T01:09:41;95592.00;;;1.28
42119;BMP280;27783;42.782;23.274;2023-02-01T01:12:06;95592.84;;;1.20
42119;BMP280;27783;42.782;23.274;2023-02-01T01:14:33;95602.06;;;1.17
42119;BMP280;27783;42.782;23.274;2023-02-01T01:16:59;95600.84;;;1.15
42119;BMP280;27783;42.782;23.274;2023-02-01T01:19:28;95603.75;;;1.14
42119;BMP280;27783;42.782;23.274;2023-02-01T01:21:55;95599.41;;;1.06
42119;BMP280;27783;42.782;23.274;2023-02-01T01:24:20;95595.97;;;1.02
42119;BMP280;27783;42.782;23.274;2023-02-01T01:26:46;95598.63;;;0.94
42119;BMP280;27783;42.782;23.274;2023-02-01T01:29:13;95600.56;;;0.97
42119;BMP280;27783;42.782;23.274;2023-02-01T01:32:02;95598.31;;;0.95
42119;BMP280;27783;42.782;23.274;2023-02-01T01:34:27;95614.50;;;0.92
42119;BMP280;27783;42.782;23.274;2023-02-01T01:36:53;95612.53;;;0.89
42119;BMP280;27783;42.782;23.274;2023-02-01T01:39:20;95599.16;;;0.87
42119;BMP280;27783;42.782;23.274;2023-02-01T01:41:47;95609.22;;;0.89
42119;BMP280;27783;42.782;23.274;2023-02-01T01:47:17;95607.13;;;0.82
42119;BMP280;27783;42.782;23.274;2023-02-01T01:49:43;95603.22;;;0.77
42119;BMP280;27783;42.782;23.274;2023-02-01T01:52:09;95608.50;;;0.80
42119;BMP280;27783;42.782;23.274;2023-02-01T01:57:07;95613.44;;;0.73
42119;BMP280;27783;42.782;23.274;2023-02-01T01:59:36;95608.34;;;0.65
42119;BMP280;27783;42.782;23.274;2023-02-01T02:02:03;95605.44;;;0.66
42119;BMP280;27783;42.782;23.274;2023-02-01T02:04:29;95616.38;;;0.72
42119;BMP280;27783;42.782;23.274;2023-02-01T02:07:17;95607.28;;;0.46
42119;BMP280;27783;42.782;23.274;2023-02-01T02:09:51;95603.31;;;0.49
42119;BMP280;27783;42.782;23.274;2023-02-01T02:12:19;95597.91;;;0.53
42119;BMP280;27783;42.782;23.274;2023-02-01T02:14:53;95605.06;;;0.56
42119;BMP280;27783;42.782;23.274;2023-02-01T02:20:11;95622.13;;;0.57
42119;BMP280;27783;42.782;23.274;2023-02-01T02:34:21;95627.03;;;0.59
42119;BMP280;27783;42.782;23.274;2023-02-01T02:42:59;95617.09;;;0.41
42119;BMP280;27783;42.782;23.274;2023-02-01T02:46:12;95616.00;;;0.62
42119;BMP280;27783;42.782;23.274;2023-02-01T02:49:20;95623.53;;;0.75
42119;BMP280;27783;42.782;23.274;2023-02-01T02:51:56;95624.59;;;0.74
42119;BMP280;27783;42.782;23.274;2023-02-01T02:54:47;95630.03;;;0.81
42119;BMP280;27783;42.782;23.274;2023-02-01T03:00:24;95625.84;;;0.88
42119;BMP280;27783;42.782;23.274;2023-02-01T03:03:11;95623.69;;;0.90
42119;BMP280;27783;42.782;23.274;2023-02-01T03:05:56;95631.84;;;1.00
42119;BMP280;27783;42.782;23.274;2023-02-01T03:08:27;95631.53;;;1.01
42119;BMP280;27783;42.782;23.274;2023-02-01T03:11:01;95637.59;;;1.05
42119;BMP280;27783;42.782;23.274;2023-02-01T03:13:58;95639.31;;;1.01
42119;BMP280;27783;42.782;23.274;2023-02-01T03:16:41;95641.13;;;1.01
42119;BMP280;27783;42.782;23.274;2023-02-01T03:19:24;95649.28;;;1.11
42119;BMP280;27783;42.782;23.274;2023-02-01T03:21:57;95653.50;;;1.16
42119;BMP280;27783;42.782;23.274;2023-02-01T03:24:46;95637.81;;;1.12
42119;BMP280;27783;42.782;23.274;2023-02-01T03:27:35;95652.94;;;1.10
42119;BMP280;27783;42.782;23.274;2023-02-01T03:30:22;95651.66;;;1.16
42119;BMP280;27783;42.782;23.274;2023-02-01T03:32:50;95653.50;;;1.16
42119;BMP280;27783;42.782;23.274;2023-02-01T03:35:33;95642.38;;;1.15
42119;BMP280;27783;42.782;23.274;2023-02-01T03:41:02;95636.31;;;1.11
42119;BMP280;27783;42.782;23.274;2023-02-01T03:43:30;95640.19;;;1.05
42119;BMP280;27783;42.782;23.274;2023-02-01T03:46:12;95639.44;;;1.05
42119;BMP280;27783;42.782;23.274;2023-02-01T03:48:44;95638.97;;;1.03
42119;BMP280;27783;42.782;23.274;2023-02-01T03:51:10;95640.19;;;1.05
42119;BMP280;27783;42.782;23.274;2023-02-01T03:53:39;95647.22;;;1.05
42119;BMP280;27783;42.782;23.274;2023-02-01T03:56:06;95643.22;;;1.07
42119;BMP280;27783;42.782;23.274;2023-02-01T03:58:31;95633.25;;;1.09
42119;BMP280;27783;42.782;23.274;2023-02-01T04:00:59;95652.75;;;1.15
42119;BMP280;27783;42.782;23.274;2023-02-01T04:03:27;95638.28;;;1.26
42119;BMP280;27783;42.782;23.274;2023-02-01T04:05:53;95644.22;;;1.26
42119;BMP280;27783;42.782;23.274;2023-02-01T04:08:20;95641.09;;;1.21
42119;BMP280;27783;42.782;23.274;2023-02-01T04:10:46;95645.84;;;1.19
42119;BMP280;27783;42.782;23.274;2023-02-01T04:13:12;95653.63;;;1.19
42119;BMP280;27783;42.782;23.274;2023-02-01T04:15:39;95651.59;;;1.24
42119;BMP280;27783;42.782;23.274;2023-02-01T04:18:06;95655.25;;;1.23
42119;BMP280;27783;42.782;23.274;2023-02-01T04:20:31;95650.72;;;1.32
42119;BMP280;27783;42.782;23.274;2023-02-01T04:22:57;95649.25;;;1.31
42119;BMP280;27783;42.782;23.274;2023-02-01T04:25:22;95649.00;;;1.24
42119;BMP280;27783;42.782;23.274;2023-02-01T04:27:47;95652.47;;;1.28
42119;BMP280;27783;42.782;23.274;2023-02-01T04:30:17;95651.31;;;1.37
42119;BMP280;27783;42.782;23.274;2023-02-01T04:32:43;95647.53;;;1.35
42119;BMP280;27783;42.782;23.274;2023-02-01T04:35:09;95663.09;;;1.35
42119;BMP280;27783;42.782;23.274;2023-02-01T04:37:35;95657.44;;;1.33
42119;BMP280;27783;42.782;23.274;2023-02-01T04:40:01;95651.19;;;1.46
42119;BMP280;27783;42.782;23.274;2023-02-01T04:42:30;95651.31;;;1.37
42119;BMP280;27783;42.782;23.274;2023-02-01T04:44:56;95654.69;;;1.49
42119;BMP280;27783;42.782;23.274;2023-02-01T04:47:22;95661.34;;;1.39
42119;BMP280;27783;42.782;23.274;2023-02-01T04:49:48;95658.44;;;1.40
42119;BMP280;27783;42.782;23.274;2023-02-01T04:52:14;95666.38;;;1.55
42119;BMP280;27783;42.782;23.274;2023-02-01T04:54:40;95665.28;;;1.45
42119;BMP280;27783;42.782;23.274;2023-02-01T04:57:05;95676.28;;;1.42
42119;BMP280;27783;42.782;23.274;2023-02-01T04:59:30;95673.50;;;1.47
42119;BMP280;27783;42.782;23.274;2023-02-01T05:01:56;95668.00;;;1.48
42119;BMP280;27783;42.782;23.274;2023-02-01T05:04:23;95678.59;;;1.55
42119;BMP280;27783;42.782;23.274;2023-02-01T05:06:48;95685.53;;;1.51
42119;BMP280;27783;42.782;23.274;2023-02-01T05:09:13;95679.94;;;1.61
42119;BMP280;27783;42.782;23.274;2023-02-01T05:11:40;95687.16;;;1.55
42119;BMP280;27783;42.782;23.274;2023-02-01T05:14:24;95686.31;;;1.63
42119;BMP280;27783;42.782;23.274;2023-02-01T05:16:49;95692.16;;;1.60
42119;BMP280;27783;42.782;23.274;2023-02-01T05:19:17;95675.03;;;1.59
42119;BMP280;27783;42.782;23.274;2023-02-01T05:21:42;95677.44;;;1.64
42119;BMP280;27783;42.782;23.274;2023-02-01T05:24:15;95677.09;;;1.66
42119;BMP280;27783;42.782;23.274;2023-02-01T05:26:49;95674.63;;;1.69
42119;BMP280;27783;42.782;23.274;2023-02-01T05:29:16;95681.00;;;1.71
42119;BMP280;27783;42.782;23.274;2023-02-01T05:31:44;95682.97;;;1.74
42119;BMP280;27783;42.782;23.274;2023-02-01T05:34:10;95671.59;;;1.79
42119;BMP280;27783;42.782;23.274;2023-02-01T05:36:36;95679.84;;;1.81
42119;BMP280;27783;42.782;23.274;2023-02-01T05:39:02;95681.22;;;1.78
42119;BMP280;27783;42.782;23.274;2023-02-01T05:41:27;95684.47;;;1.75
42119;BMP280;27783;42.782;23.274;2023-02-01T05:43:52;95677.13;;;1.77
42119;BMP280;27783;42.782;23.274;2023-02-01T05:46:18;95674.66;;;1.81
42119;BMP280;27783;42.782;23.274;2023-02-01T05:48:43;95687.66;;;1.81
42119;BMP280;27783;42.782;23.274;2023-02-01T05:51:09;95686.53;;;1.82
42119;BMP280;27783;42.782;23.274;2023-02-01T05:53:35;95697.50;;;1.87
42119;BMP280;27783;42.782;23.274;2023-02-01T05:56:01;95691.66;;;1.90
42119;BMP280;27783;42.782;23.274;2023-02-01T05:58:27;95688.41;;;1.93
42119;BMP280;27783;42.782;23.274;2023-02-01T06:00:52;95690.34;;;1.96
42119;BMP280;27783;42.782;23.274;2023-02-01T06:03:18;95687.34;;;1.94
42119;BMP280;27783;42.782;23.274;2023-02-01T06:05:44;95695.34;;;2.12
42119;BMP280;27783;42.782;23.274;2023-02-01T06:08:10;95693.72;;;2.08
42119;BMP280;27783;42.782;23.274;2023-02-01T06:10:35;95695.47;;;2.16
42119;BMP280;27783;42.782;23.274;2023-02-01T06:13:00;95695.34;;;2.12
42119;BMP280;27783;42.782;23.274;2023-02-01T06:15:28;95683.53;;;2.15
42119;BMP280;27783;42.782;23.274;2023-02-01T06:17:53;95694.81;;;2.18
42119;BMP280;27783;42.782;23.274;2023-02-01T06:20:19;95684.09;;;2.20
42119;BMP280;27783;42.782;23.274;2023-02-01T06:22:45;95696.09;;;2.24
42119;BMP280;27783;42.782;23.274;2023-02-01T06:25:11;95700.97;;;2.26
42119;BMP280;27783;42.782;23.274;2023-02-01T06:27:36;95693.72;;;2.31
42119;BMP280;27783;42.782;23.274;2023-02-01T06:30:05;95700.13;;;2.33
42119;BMP280;27783;42.782;23.274;2023-02-01T06:32:32;95693.06;;;2.34
42119;BMP280;27783;42.782;23.274;2023-02-01T06:34:57;95702.28;;;2.32
42119;BMP280;27783;42.782;23.274;2023-02-01T06:37:23;95707.28;;;2.36
42119;BMP280;27783;42.782;23.274;2023-02-01T06:39:54;95699.88;;;2.38
42119;BMP280;27783;42.782;23.274;2023-02-01T06:42:19;95703.69;;;2.41
42119;BMP280;27783;42.782;23.274;2023-02-01T06:44:45;95707.59;;;2.47
42119;BMP280;27783;42.782;23.274;2023-02-01T06:47:11;95714.09;;;2.52
42119;BMP280;27783;42.782;23.274;2023-02-01T06:49:36;95707.81;;;2.53
42119;BMP280;27783;42.782;23.274;2023-02-01T06:52:02;95714.50;;;2.54
42119;BMP280;27783;42.782;23.274;2023-02-01T06:54:27;95719.81;;;2.58
42119;BMP280;27783;42.782;23.274;2023-02-01T06:56:53;95713.94;;;2.61
42119;BMP280;27783;42.782;23.274;2023-02-01T06:59:19;95733.28;;;2.60
42119;BMP280;27783;42.782;23.274;2023-02-01T07:01:44;95733.69;;;2.62
42119;BMP280;27783;42.782;23.274;2023-02-01T07:04:11;95736.50;;;2.68
42119;BMP280;27783;42.782;23.274;2023-02-01T07:06:37;95742.38;;;2.66
42119;BMP280;27783;42.782;23.274;2023-02-01T07:09:03;95744.63;;;2.67
42119;BMP280;27783;42.782;23.274;2023-02-01T07:11:28;95747.00;;;2.72
42119;BMP280;27783;42.782;23.274;2023-02-01T07:13:54;95758.59;;;2.74
42119;BMP280;27783;42.782;23.274;2023-02-01T07:16:20;95749.38;;;2.77
42119;BMP280;27783;42.782;23.274;2023-02-01T07:18:46;95750.25;;;2.81
42119;BMP280;27783;42.782;23.274;2023-02-01T07:21:11;95760.56;;;2.89
42119;BMP280;27783;42.782;23.274;2023-02-01T07:23:37;95761.72;;;2.91
42119;BMP280;27783;42.782;23.274;2023-02-01T07:26:04;95767.81;;;2.95
42119;BMP280;27783;42.782;23.274;2023-02-01T07:28:32;95766.06;;;2.87
42119;BMP280;27783;42.782;23.274;2023-02-01T07:31:06;95774.84;;;2.95
42119;BMP280;27783;42.782;23.274;2023-02-01T07:33:31;95770.38;;;3.07
42119;BMP280;27783;42.782;23.274;2023-02-01T07:35:57;95774.19;;;2.98
42119;BMP280;27783;42.782;23.274;2023-02-01T07:38:22;95784.50;;;3.06
42119;BMP280;27783;42.782;23.274;2023-02-01T07:40:49;95778.84;;;3.16
42119;BMP280;27783;42.782;23.274;2023-02-01T07:43:14;95769.91;;;3.16
42119;BMP280;27783;42.782;23.274;2023-02-01T07:45:40;95791.19;;;3.18
42119;BMP280;27783;42.782;23.274;2023-02-01T07:48:05;95780.22;;;3.13
42119;BMP280;27783;42.782;23.274;2023-02-01T07:50:31;95782.09;;;3.13
42119;BMP280;27783;42.782;23.274;2023-02-01T07:52:59;95793.03;;;3.18
42119;BMP280;27783;42.782;23.274;2023-02-01T07:55:25;95786.31;;;3.17
42119;BMP280;27783;42.782;23.274;2023-02-01T07:57:51;95779.78;;;3.23
42119;BMP280;27783;42.782;23.274;2023-02-01T08:00:17;95792.91;;;3.26
42119;BMP280;27783;42.782;23.274;2023-02-01T08:03:03;95792.44;;;3.36
42119;BMP280;27783;42.782;23.274;2023-02-01T08:05:28;95794.16;;;3.44
42119;BMP280;27783;42.782;23.274;2023-02-01T08:07:54;95780.47;;;3.47
42119;BMP280;27783;42.782;23.274;2023-02-01T08:10:19;95780.44;;;3.58
42119;BMP280;27783;42.782;23.274;2023-02-01T08:12:45;95778.66;;;3.62
42119;BMP280;27783;42.782;23.274;2023-02-01T08:15:17;95776.81;;;3.63
42119;BMP280;27783;42.782;23.274;2023-02-01T08:17:49;95779.88;;;3.65
42119;BMP280;27783;42.782;23.274;2023-02-01T08:20:15;95774.19;;;3.74
42119;BMP280;27783;42.782;23.274;2023-02-01T08:22:41;95774.84;;;3.71
42119;BMP280;27783;42.782;23.274;2023-02-01T08:25:07;95780.47;;;3.73
42119;BMP280;27783;42.782;23.274;2023-02-01T08:27:33;95787.88;;;3.71
42119;BMP280;27783;42.782;23.274;2023-02-01T08:29:59;95781.59;;;3.87
42119;BMP280;27783;42.782;23.274;2023-02-01T08:32:25;95785.13;;;3.80
42119;BMP280;27783;42.782;23.274;2023-02-01T08:34:50;95794.88;;;3.82
42119;BMP280;27783;42.782;23.274;2023-02-01T08:37:23;95786.72;;;3.84
42119;BMP280;27783;42.782;23.274;2023-02-01T08:39:51;95793.88;;;3.87
42119;BMP280;27783;42.782;23.274;2023-02-01T08:42:17;95792.25;;;3.82
42119;BMP280;27783;42.782;23.274;2023-02-01T08:45:02;95794.28;;;3.89
42119;BMP280;27783;42.782;23.274;2023-02-01T08:47:28;95790.28;;;3.91
42119;BMP280;27783;42.782;23.274;2023-02-01T08:49:54;95780.97;;;3.79
42119;BMP280;27783;42.782;23.274;2023-02-01T08:52:19;95787.69;;;3.91
42119;BMP280;27783;42.782;23.274;2023-02-01T08:54:45;95785.88;;;3.80
42119;BMP280;27783;42.782;23.274;2023-02-01T08:57:10;95791.75;;;4.04
42119;BMP280;27783;42.782;23.274;2023-02-01T08:59:35;95783.16;;;4.18
42119;BMP280;27783;42.782;23.274;2023-02-01T09:02:01;95788.22;;;4.27
42119;BMP280;27783;42.782;23.274;2023-02-01T09:04:26;95789.91;;;4.49
42119;BMP280;27783;42.782;23.274;2023-02-01T09:06:51;95797.25;;;4.59
42119;BMP280;27783;42.782;23.274;2023-02-01T09:09:17;95782.78;;;4.47
42119;BMP280;27783;42.782;23.274;2023-02-01T09:11:42;95785.88;;;4.37
42119;BMP280;27783;42.782;23.274;2023-02-01T09:14:08;95785.13;;;4.51
42119;BMP280;27783;42.782;23.274;2023-02-01T09:16:33;95787.22;;;4.46
42119;BMP280;27783;42.782;23.274;2023-02-01T09:18:59;95790.44;;;4.70
42119;BMP280;27783;42.782;23.274;2023-02-01T09:21:24;95788.31;;;4.75
42119;BMP280;27783;42.782;23.274;2023-02-01T09:23:52;95790.06;;;4.71
42119;BMP280;27783;42.782;23.274;2023-02-01T09:26:18;95790.06;;;4.71
42119;BMP280;27783;42.782;23.274;2023-02-01T09:28:43;95778.22;;;4.59
42119;BMP280;27783;42.782;23.274;2023-02-01T09:31:08;95782.78;;;4.47
42119;BMP280;27783;42.782;23.274;2023-02-01T09:33:34;95783.34;;;4.55
42119;BMP280;27783;42.782;23.274;2023-02-01T09:36:04;95775.34;;;4.64
42119;BMP280;27783;42.782;23.274;2023-02-01T09:38:32;95772.56;;;4.72
42119;BMP280;27783;42.782;23.274;2023-02-01T09:46:45;95760.53;;;4.52
42119;BMP280;27783;42.782;23.274;2023-02-01T09:49:35;95755.91;;;4.61
42119;BMP280;27783;42.782;23.274;2023-02-01T09:52:05;95753.38;;;4.49
42119;BMP280;27783;42.782;23.274;2023-02-01T09:54:54;95741.44;;;4.48
42119;BMP280;27783;42.782;23.274;2023-02-01T09:57:39;95743.03;;;4.53
42119;BMP280;27783;42.782;23.274;2023-02-01T10:00:25;95745.13;;;4.63
42119;BMP280;27783;42.782;23.274;2023-02-01T10:02:54;95744.31;;;4.92
42119;BMP280;27783;42.782;23.274;2023-02-01T10:06:00;95730.81;;;5.24
42119;BMP280;27783;42.782;23.274;2023-02-01T10:14:01;95731.72;;;5.31
42119;BMP280;27783;42.782;23.274;2023-02-01T10:24:49;95711.78;;;6.91
42119;BMP280;27783;42.782;23.274;2023-02-01T10:27:34;95714.59;;;6.54
42119;BMP280;27783;42.782;23.274;2023-02-01T10:30:18;95701.53;;;6.58
42119;BMP280;27783;42.782;23.274;2023-02-01T10:32:44;95696.03;;;6.66
42119;BMP280;27783;42.782;23.274;2023-02-01T10:37:50;95684.41;;;6.16
42119;BMP280;27783;42.782;23.274;2023-02-01T10:40:20;95688.69;;;6.02
42119;BMP280;27783;42.782;23.274;2023-02-01T10:42:48;95687.78;;;5.95
42119;BMP280;27783;42.782;23.274;2023-02-01T10:45:17;95696.66;;;6.13
42119;BMP280;27783;42.782;23.274;2023-02-01T10:47:44;95695.94;;;6.59
42119;BMP280;27783;42.782;23.274;2023-02-01T10:53:38;95680.34;;;6.95
42119;BMP280;27783;42.782;23.274;2023-02-01T10:56:12;95676.06;;;7.37
42119;BMP280;27783;42.782;23.274;2023-02-01T10:58:59;95679.41;;;7.38
42119;BMP280;27783;42.782;23.274;2023-02-01T11:01:36;95684.25;;;7.68
42119;BMP280;27783;42.782;23.274;2023-02-01T11:04:18;95672.44;;;7.84
42119;BMP280;27783;42.782;23.274;2023-02-01T11:06:53;95684.06;;;7.51
42119;BMP280;27783;42.782;23.274;2023-02-01T11:09:39;95666.66;;;8.04
42119;BMP280;27783;42.782;23.274;2023-02-01T11:12:22;95667.72;;;7.96
42119;BMP280;27783;42.782;23.274;2023-02-01T11:14:48;95668.19;;;8.05
42119;BMP280;27783;42.782;23.274;2023-02-01T11:17:21;95651.44;;;8.19
42119;BMP280;27783;42.782;23.274;2023-02-01T11:20:00;95653.78;;;8.31
42119;BMP280;27783;42.782;23.274;2023-02-01T11:22:27;95658.13;;;8.14
42119;BMP280;27783;42.782;23.274;2023-02-01T11:24:56;95637.50;;;8.12
42119;BMP280;27783;42.782;23.274;2023-02-01T11:27:22;95642.00;;;8.12
42119;BMP280;27783;42.782;23.274;2023-02-01T11:29:51;95646.16;;;8.16
42119;BMP280;27783;42.782;23.274;2023-02-01T11:32:19;95646.09;;;8.55
42119;BMP280;27783;42.782;23.274;2023-02-01T11:34:59;95632.56;;;8.56
42119;BMP280;27783;42.782;23.274;2023-02-01T11:37:40;95640.16;;;8.68
42119;BMP280;27783;42.782;23.274;2023-02-01T11:43:18;95637.94;;;8.21
42119;BMP280;27783;42.782;23.274;2023-02-01T11:45:38;95641.53;;;8.49
42119;BMP280;27783;42.782;23.274;2023-02-01T11:48:16;95626.34;;;8.78
42119;BMP280;27783;42.782;23.274;2023-02-01T11:50:59;95636.34;;;8.55
42119;BMP280;27783;42.782;23.274;2023-02-01T11:56:23;95625.31;;;8.40
42119;BMP280;27783;42.782;23.274;2023-02-01T12:12:59;95622.78;;;8.53
42119;BMP280;27783;42.782;23.274;2023-02-01T12:15:45;95613.22;;;8.81
42119;BMP280;27783;42.782;23.274;2023-02-01T12:21:06;95612.81;;;8.79
42119;BMP280;27783;42.782;23.274;2023-02-01T12:32:13;95609.59;;;9.09
42119;BMP280;27783;42.782;23.274;2023-02-01T12:37:31;95611.91;;;9.24
42119;BMP280;27783;42.782;23.274;2023-02-01T12:42:42;95616.91;;;8.70
42119;BMP280;27783;42.782;23.274;2023-02-01T12:45:28;95606.91;;;9.02
42119;BMP280;27783;42.782;23.274;2023-02-01T12:48:00;95614.63;;;9.45
42119;BMP280;27783;42.782;23.274;2023-02-01T12:50:31;95608.97;;;9.46
42119;BMP280;27783;42.782;23.274;2023-02-01T12:53:12;95599.53;;;9.28
42119;BMP280;27783;42.782;23.274;2023-02-01T12:55:58;95595.13;;;9.66
42119;BMP280;27783;42.782;23.274;2023-02-01T12:58:45;95604.31;;;9.09
42119;BMP280;27783;42.782;23.274;2023-02-01T13:07:20;95598.31;;;9.02
42119;BMP280;27783;42.782;23.274;2023-02-01T13:09:57;95589.97;;;8.90
42119;BMP280;27783;42.782;23.274;2023-02-01T13:12:32;95592.28;;;8.98
42119;BMP280;27783;42.782;23.274;2023-02-01T13:15:09;95592.34;;;9.12
42119;BMP280;27783;42.782;23.274;2023-02-01T13:17:38;95585.28;;;9.43
42119;BMP280;27783;42.782;23.274;2023-02-01T13:23:00;95581.94;;;9.63
42119;BMP280;27783;42.782;23.274;2023-02-01T13:25:34;95590.78;;;9.00
42119;BMP280;27783;42.782;23.274;2023-02-01T13:28:20;95588.13;;;8.97
42119;BMP280;27783;42.782;23.274;2023-02-01T13:42:27;95580.56;;;8.79
42119;BMP280;27783;42.782;23.274;2023-02-01T13:45:00;95577.28;;;9.02
42119;BMP280;27783;42.782;23.274;2023-02-01T13:47:39;95580.94;;;8.81
42119;BMP280;27783;42.782;23.274;2023-02-01T13:52:54;95584.91;;;9.41
42119;BMP280;27783;42.782;23.274;2023-02-01T13:57:46;95580.22;;;8.94
42119;BMP280;27783;42.782;23.274;2023-02-01T14:08:23;95565.34;;;9.28
42119;BMP280;27783;42.782;23.274;2023-02-01T14:10:52;95578.09;;;9.26
42119;BMP280;27783;42.782;23.274;2023-02-01T14:26:20;95551.44;;;9.24
42119;BMP280;27783;42.782;23.274;2023-02-01T14:28:51;95545.75;;;9.19
42119;BMP280;27783;42.782;23.274;2023-02-01T14:34:37;95559.84;;;8.67
42119;BMP280;27783;42.782;23.274;2023-02-01T14:37:11;95547.06;;;8.62
42119;BMP280;27783;42.782;23.274;2023-02-01T14:44:49;95568.03;;;8.55
42119;BMP280;27783;42.782;23.274;2023-02-01T14:52:17;95576.84;;;7.82
42119;BMP280;27783;42.782;23.274;2023-02-01T14:54:47;95567.88;;;7.82
42119;BMP280;27783;42.782;23.274;2023-02-01T14:57:19;95560.72;;;7.80
42119;BMP280;27783;42.782;23.274;2023-02-01T14:59:46;95561.47;;;7.41
42119;BMP280;27783;42.782;23.274;2023-02-01T15:02:21;95567.47;;;7.42
42119;BMP280;27783;42.782;23.274;2023-02-01T15:04:53;95567.66;;;7.23
42119;BMP280;27783;42.782;23.274;2023-02-01T15:07:20;95571.25;;;7.09
42119;BMP280;27783;42.782;23.274;2023-02-01T15:09:48;95554.94;;;7.25
42119;BMP280;27783;42.782;23.274;2023-02-01T15:12:22;95564.44;;;7.36
42119;BMP280;27783;42.782;23.274;2023-02-01T15:15:14;95563.88;;;7.17
42119;BMP280;27783;42.782;23.274;2023-02-01T15:17:40;95568.53;;;7.02
42119;BMP280;27783;42.782;23.274;2023-02-01T15:20:26;95560.38;;;7.07
42119;BMP280;27783;42.782;23.274;2023-02-01T15:25:22;95552.72;;;6.95
42119;BMP280;27783;42.782;23.274;2023-02-01T15:27:48;95565.28;;;6.80
42119;BMP280;27783;42.782;23.274;2023-02-01T15:30:23;95563.47;;;6.83
42119;BMP280;27783;42.782;23.274;2023-02-01T15:32:49;95570.03;;;6.71
42119;BMP280;27783;42.782;23.274;2023-02-01T15:35:36;95562.78;;;6.58
42119;BMP280;27783;42.782;23.274;2023-02-01T15:41:21;95581.41;;;6.28
42119;BMP280;27783;42.782;23.274;2023-02-01T15:46:38;95580.44;;;6.14
42119;BMP280;27783;42.782;23.274;2023-02-01T15:49:31;95578.53;;;6.11
42119;BMP280;27783;42.782;23.274;2023-02-01T15:51:59;95583.50;;;6.16
42119;BMP280;27783;42.782;23.274;2023-02-01T15:57:03;95590.75;;;6.03
42119;BMP280;27783;42.782;23.274;2023-02-01T15:59:41;95582.56;;;6.05
42119;BMP280;27783;42.782;23.274;2023-02-01T16:02:42;95588.47;;;5.99
42119;BMP280;27783;42.782;23.274;2023-02-01T16:05:35;95596.63;;;5.97
42119;BMP280;27783;42.782;23.274;2023-02-01T16:08:25;95602.00;;;5.82
42119;BMP280;27783;42.782;23.274;2023-02-01T16:10:53;95601.28;;;5.63
42119;BMP280;27783;42.782;23.274;2023-02-01T16:13:20;95619.03;;;5.54
42119;BMP280;27783;42.782;23.274;2023-02-01T16:15:47;95617.53;;;5.53
42119;BMP280;27783;42.782;23.274;2023-02-01T16:18:14;95623.56;;;5.57
42119;BMP280;27783;42.782;23.274;2023-02-01T16:20:41;95619.09;;;5.36
42119;BMP280;27783;42.782;23.274;2023-02-01T16:23:08;95627.09;;;5.06
42119;BMP280;27783;42.782;23.274;2023-02-01T16:25:36;95621.97;;;4.94
42119;BMP280;27783;42.782;23.274;2023-02-01T16:28:03;95624.34;;;4.81
42119;BMP280;27783;42.782;23.274;2023-02-01T16:30:31;95630.00;;;4.67
42119;BMP280;27783;42.782;23.274;2023-02-01T16:33:06;95636.41;;;4.70
42119;BMP280;27783;42.782;23.274;2023-02-01T16:35:58;95629.66;;;4.50
42119;BMP280;27783;42.782;23.274;2023-02-01T16:38:25;95638.31;;;4.21
42119;BMP280;27783;42.782;23.274;2023-02-01T16:40:52;95629.63;;;4.02
42119;BMP280;27783;42.782;23.274;2023-02-01T16:43:22;95631.88;;;4.18
42119;BMP280;27783;42.782;23.274;2023-02-01T16:45:49;95633.56;;;4.26
42119;BMP280;27783;42.782;23.274;2023-02-01T16:48:35;95631.63;;;4.23
42119;BMP280;27783;42.782;23.274;2023-02-01T16:51:04;95634.66;;;4.25
42119;BMP280;27783;42.782;23.274;2023-02-01T16:53:33;95625.19;;;4.17
42119;BMP280;27783;42.782;23.274;2023-02-01T16:56:00;95625.13;;;4.32
42119;BMP280;27783;42.782;23.274;2023-02-01T16:58:29;95631.22;;;4.21
42119;BMP280;27783;42.782;23.274;2023-02-01T17:00:56;95628.34;;;4.26
42119;BMP280;27783;42.782;23.274;2023-02-01T17:03:22;95630.41;;;4.17
42119;BMP280;27783;42.782;23.274;2023-02-01T17:05:56;95630.84;;;4.04
42119;BMP280;27783;42.782;23.274;2023-02-01T17:08:32;95621.56;;;3.92
42119;BMP280;27783;42.782;23.274;2023-02-01T17:11:06;95621.06;;;3.86
42119;BMP280;27783;42.782;23.274;2023-02-01T17:13:32;95623.50;;;4.10